createdAt,value
2023-05-13T00:00:58.329Z,8.68
2023-05-13T00:03:26.259Z,8.65
2023-05-13T00:05:54.219Z,8.57
2023-05-13T00:08:22.023Z,8.00
2023-05-13T00:10:50.475Z,8.73
2023-05-13T00:13:19.652Z,9.30
2023-05-13T00:15:47.416Z,8.88
2023-05-13T00:18:15.251Z,9.25
2023-05-13T00:20:43.052Z,9.82
2023-05-13T00:23:11.322Z,10.07
2023-05-13T00:25:41.190Z,10.07
2023-05-13T00:28:09.029Z,9.73
2023-05-13T00:30:38.461Z,10.40
2023-05-13T00:33:07.416Z,10.50
2023-05-13T00:35:35.703Z,10.15
2023-05-13T00:38:03.526Z,10.45
2023-05-13T00:40:31.365Z,9.45
2023-05-13T00:42:59.162Z,10.27
2023-05-13T00:45:27.230Z,10.60
2023-05-13T00:47:56.440Z,10.40
2023-05-13T00:50:24.443Z,10.52
2023-05-13T00:52:52.538Z,10.57
2023-05-13T00:55:20.540Z,11.15
2023-05-13T00:57:48.425Z,11.40
2023-05-13T01:00:16.957Z,11.63
2023-05-13T01:02:52.025Z,13.30
2023-05-13T01:05:32.631Z,12.70
2023-05-13T01:08:05.029Z,12.15
2023-05-13T01:10:39.141Z,12.75
2023-05-13T01:13:11.158Z,12.65
2023-05-13T01:15:44.115Z,12.10
2023-05-13T01:18:15.943Z,12.48
2023-05-13T01:20:46.704Z,12.98
2023-05-13T01:23:15.901Z,13.43
2023-05-13T01:25:45.114Z,13.30
2023-05-13T01:28:13.231Z,12.32
2023-05-13T01:30:41.180Z,12.57
2023-05-13T01:33:09.288Z,14.43
2023-05-13T01:35:37.337Z,14.60
2023-05-13T01:38:06.097Z,14.17
2023-05-13T01:40:36.099Z,14.57
2023-05-13T01:43:04.020Z,14.80
2023-05-13T01:45:33.163Z,14.60
2023-05-13T01:48:01.217Z,14.60
2023-05-13T01:50:29.009Z,13.55
2023-05-13T01:52:57.322Z,13.73
2023-05-13T01:55:25.166Z,13.57
2023-05-13T01:57:54.291Z,13.95
2023-05-13T02:00:22.751Z,14.15
2023-05-13T02:02:50.881Z,14.18
2023-05-13T02:05:18.994Z,14.25
2023-05-13T02:07:46.743Z,13.77
2023-05-13T02:10:14.537Z,14.20
2023-05-13T02:12:42.307Z,16.98
2023-05-13T02:15:12.304Z,16.83
2023-05-13T02:17:40.103Z,17.75
2023-05-13T02:20:09.314Z,17.67
2023-05-13T02:22:37.125Z,18.05
2023-05-13T02:25:05.305Z,18.10
2023-05-13T02:27:33.041Z,19.23
2023-05-13T02:30:00.810Z,18.70
2023-05-13T02:32:30.043Z,19.17
2023-05-13T02:34:57.979Z,18.42
2023-05-13T02:37:25.817Z,19.60
2023-05-13T02:39:53.660Z,19.08
2023-05-13T02:42:21.493Z,19.92
2023-05-13T02:44:49.434Z,19.10
2023-05-13T02:47:17.250Z,19.27
2023-05-13T02:49:46.343Z,19.10
2023-05-13T02:52:14.111Z,19.55
2023-05-13T02:54:41.977Z,19.77
2023-05-13T02:57:09.937Z,20.15
2023-05-13T02:59:37.695Z,20.48
2023-05-13T03:02:05.725Z,21.13
2023-05-13T03:04:33.560Z,20.23
2023-05-13T03:07:02.685Z,20.00
2023-05-13T03:09:31.602Z,20.65
2023-05-13T03:11:59.461Z,21.20
2023-05-13T03:14:27.928Z,20.65
2023-05-13T03:16:55.742Z,19.92
2023-05-13T03:19:23.646Z,21.10
2023-05-13T03:21:51.440Z,19.90
2023-05-13T03:24:20.708Z,20.13
2023-05-13T03:26:48.485Z,20.40
2023-05-13T03:29:16.499Z,19.35
2023-05-13T03:31:44.396Z,18.77
2023-05-13T03:34:12.252Z,19.20
2023-05-13T03:36:40.019Z,18.48
2023-05-13T03:39:07.987Z,18.77
2023-05-13T03:41:37.266Z,18.20
2023-05-13T03:44:05.250Z,17.83
2023-05-13T03:46:33.990Z,18.57
2023-05-13T03:49:01.857Z,18.90
2023-05-13T03:51:29.654Z,18.75
2023-05-13T03:53:57.675Z,18.33
2023-05-13T03:56:25.791Z,18.40
2023-05-13T03:58:55.181Z,18.10
2023-05-13T04:01:23.169Z,19.63
2023-05-13T04:03:50.975Z,18.23
2023-05-13T04:06:18.818Z,18.48
2023-05-13T04:08:46.700Z,18.25
2023-05-13T04:11:14.479Z,18.63
2023-05-13T04:13:43.734Z,18.52
2023-05-13T04:16:13.388Z,18.90
2023-05-13T04:18:41.227Z,24.42
2023-05-13T04:21:09.266Z,19.70
2023-05-13T04:23:37.243Z,20.90
2023-05-13T04:26:05.053Z,20.58
2023-05-13T04:28:32.817Z,20.80
2023-05-13T04:31:00.619Z,21.65
2023-05-13T04:33:29.745Z,22.90
2023-05-13T04:35:57.562Z,22.80
2023-05-13T04:38:25.368Z,23.95
2023-05-13T04:40:53.346Z,24.05
2023-05-13T04:43:22.197Z,23.92
2023-05-13T04:45:50.280Z,24.95
2023-05-13T04:48:18.070Z,25.05
2023-05-13T04:50:48.362Z,26.10
2023-05-13T04:53:16.647Z,26.38
2023-05-13T04:55:44.457Z,25.98
2023-05-13T04:58:12.261Z,26.52
2023-05-13T05:00:40.071Z,27.33
2023-05-13T05:03:07.914Z,26.33
2023-05-13T05:05:35.718Z,26.52
2023-05-13T05:08:04.991Z,25.75
2023-05-13T05:10:32.831Z,25.23
2023-05-13T05:13:00.629Z,25.30
2023-05-13T05:15:29.735Z,26.33
2023-05-13T05:17:58.146Z,26.67
2023-05-13T05:20:26.081Z,26.35
2023-05-13T05:22:53.903Z,25.23
2023-05-13T05:25:24.595Z,25.85
2023-05-13T05:27:52.364Z,26.20
2023-05-13T05:30:20.383Z,26.45
2023-05-13T05:32:48.460Z,25.00
2023-05-13T05:35:19.197Z,24.87
2023-05-13T05:37:47.044Z,24.17
2023-05-13T05:40:15.006Z,24.42
2023-05-13T05:42:44.128Z,24.27
2023-05-13T05:45:12.114Z,23.50
2023-05-13T05:47:39.868Z,22.90
2023-05-13T05:50:08.553Z,23.70
2023-05-13T05:52:36.362Z,22.88
2023-05-13T05:55:04.158Z,22.25
2023-05-13T05:57:31.915Z,22.95
2023-05-13T06:00:01.040Z,21.17
2023-05-13T06:02:29.039Z,19.02
2023-05-13T06:04:56.913Z,20.00
2023-05-13T06:07:24.714Z,20.02
2023-05-13T06:09:52.511Z,20.58
2023-05-13T06:12:20.363Z,19.45
2023-05-13T06:14:48.182Z,16.97
2023-05-13T06:17:17.341Z,16.90
2023-05-13T06:19:45.182Z,16.85
2023-05-13T06:22:13.052Z,18.08
2023-05-13T06:24:42.589Z,17.77
2023-05-13T06:27:11.036Z,16.55
2023-05-13T06:29:38.932Z,16.45
2023-05-13T06:32:07.559Z,15.27
2023-05-13T06:34:38.221Z,15.93
2023-05-13T06:37:06.189Z,15.90
2023-05-13T06:39:33.958Z,15.77
2023-05-13T06:42:01.748Z,14.93
2023-05-13T06:44:29.606Z,14.50
2023-05-13T06:46:57.610Z,13.82
2023-05-13T06:49:25.547Z,13.80
2023-05-13T06:51:54.721Z,15.17
2023-05-13T06:54:23.101Z,14.70
2023-05-13T06:56:52.296Z,15.65
2023-05-13T06:59:20.237Z,14.57
2023-05-13T07:01:48.029Z,15.18
2023-05-13T07:04:15.943Z,14.60
2023-05-13T07:06:44.065Z,15.45
2023-05-13T07:09:13.606Z,15.30
2023-05-13T07:11:41.496Z,15.70
2023-05-13T07:14:11.125Z,15.77
2023-05-13T07:16:41.588Z,16.13
2023-05-13T07:19:09.613Z,16.60
2023-05-13T07:21:37.420Z,16.58
2023-05-13T07:24:06.033Z,16.80
2023-05-13T07:26:35.321Z,16.37
2023-05-13T07:29:03.147Z,17.25
2023-05-13T07:31:31.692Z,17.80
2023-05-13T07:33:59.673Z,17.40
2023-05-13T07:36:27.839Z,18.13
2023-05-13T07:38:55.623Z,18.05
2023-05-13T07:41:23.521Z,18.52
2023-05-13T07:43:52.699Z,18.98
2023-05-13T07:46:20.524Z,18.35
2023-05-13T07:48:48.333Z,19.33
2023-05-13T07:51:18.282Z,19.10
2023-05-13T07:53:46.933Z,19.58
2023-05-13T07:56:14.851Z,18.90
2023-05-13T07:58:42.681Z,18.20
2023-05-13T08:01:11.770Z,19.07
2023-05-13T08:03:39.831Z,18.33
2023-05-13T08:06:08.085Z,18.95
2023-05-13T08:08:36.435Z,18.95
2023-05-13T08:11:04.303Z,18.33
2023-05-13T08:13:32.109Z,18.73
2023-05-13T08:16:02.101Z,18.85
2023-05-13T08:18:34.492Z,18.73
2023-05-13T08:21:03.347Z,19.67
2023-05-13T08:23:44.067Z,19.35
2023-05-13T08:26:13.530Z,18.90
2023-05-13T08:28:46.130Z,17.42
2023-05-13T08:31:14.487Z,18.42
2023-05-13T08:33:45.923Z,16.80
2023-05-13T08:36:14.063Z,15.02
2023-05-13T08:38:42.677Z,14.90
2023-05-13T08:41:13.138Z,14.13
2023-05-13T08:43:41.407Z,12.43
2023-05-13T08:46:12.139Z,11.52
2023-05-13T08:48:41.653Z,12.95
2023-05-13T08:51:11.123Z,14.57
2023-05-13T08:53:40.557Z,18.45
2023-05-13T08:56:09.568Z,18.98
2023-05-13T08:58:37.518Z,18.67
2023-05-13T09:01:07.104Z,19.42
2023-05-13T09:03:36.897Z,19.17
2023-05-13T09:06:05.237Z,17.98
2023-05-13T09:08:34.933Z,16.95
2023-05-13T09:11:02.745Z,15.75
2023-05-13T09:13:30.519Z,15.30
2023-05-13T09:15:58.490Z,15.27
2023-05-13T09:18:31.708Z,14.30
2023-05-13T09:20:59.676Z,14.00
2023-05-13T09:23:28.159Z,14.20
2023-05-13T09:25:57.397Z,13.48
2023-05-13T09:28:25.293Z,14.00
2023-05-13T09:30:56.657Z,13.77
2023-05-13T09:33:31.390Z,13.43
2023-05-13T09:35:59.268Z,13.07
2023-05-13T09:38:28.937Z,13.95
2023-05-13T09:40:59.097Z,14.30
2023-05-13T09:43:28.827Z,13.98
2023-05-13T09:45:57.963Z,14.50
2023-05-13T09:48:27.323Z,13.55
2023-05-13T09:50:55.981Z,14.20
2023-05-13T09:53:23.923Z,13.85
2023-05-13T09:55:53.100Z,14.70
2023-05-13T09:58:24.196Z,14.05
2023-05-13T10:00:52.880Z,13.73
2023-05-13T10:03:21.026Z,13.30
2023-05-13T10:05:50.763Z,13.55
2023-05-13T10:08:19.074Z,13.85
2023-05-13T10:10:49.489Z,13.90
2023-05-13T10:13:19.520Z,13.27
2023-05-13T10:15:51.561Z,12.17
2023-05-13T10:18:20.817Z,12.02
2023-05-13T10:20:53.673Z,11.77
2023-05-13T10:23:23.799Z,11.48
2023-05-13T10:25:52.102Z,11.68
2023-05-13T10:28:21.385Z,10.53
2023-05-13T10:30:51.016Z,10.07
2023-05-13T10:33:19.187Z,10.77
2023-05-13T10:35:58.457Z,10.38
2023-05-13T10:38:39.232Z,10.07
2023-05-13T10:41:12.982Z,10.20
2023-05-13T10:43:41.118Z,9.32
2023-05-13T10:46:13.987Z,9.05
2023-05-13T10:48:43.555Z,9.18
2023-05-13T10:51:15.444Z,9.00
2023-05-13T10:53:47.437Z,8.60
2023-05-13T10:56:15.983Z,8.10
2023-05-13T10:58:43.849Z,8.10
2023-05-13T11:01:18.876Z,7.60
2023-05-13T11:03:54.802Z,7.15
2023-05-13T11:06:24.467Z,6.90
2023-05-13T11:08:55.916Z,5.95
2023-05-13T11:11:27.481Z,6.75
2023-05-13T11:13:57.691Z,6.13
2023-05-13T11:16:27.135Z,6.18
2023-05-13T11:18:55.369Z,6.32
2023-05-13T11:21:33.348Z,7.10
2023-05-13T11:24:05.311Z,6.70
2023-05-13T11:26:48.988Z,7.25
2023-05-13T11:29:28.653Z,8.20
2023-05-13T11:32:00.555Z,8.35
2023-05-13T11:34:30.154Z,7.22
2023-05-13T11:37:07.031Z,6.93
2023-05-13T11:39:35.284Z,6.57
2023-05-13T11:42:07.582Z,7.10
2023-05-13T11:44:36.493Z,6.38
2023-05-13T11:47:08.144Z,6.57
2023-05-13T11:49:40.983Z,6.63
2023-05-13T11:52:11.495Z,6.25
2023-05-13T11:54:47.189Z,5.90
2023-05-13T11:57:23.499Z,5.75
2023-05-13T11:59:53.087Z,5.33
2023-05-13T12:02:24.023Z,5.00
2023-05-13T12:04:52.553Z,4.90
2023-05-13T12:07:24.575Z,4.55
2023-05-13T12:09:53.527Z,4.77
2023-05-13T12:12:21.905Z,4.47
2023-05-13T12:14:51.115Z,4.60
2023-05-13T12:17:19.839Z,4.28
2023-05-13T12:20:11.920Z,4.07
2023-05-13T12:22:52.496Z,3.60
2023-05-13T12:25:40.254Z,3.67
2023-05-13T12:28:09.304Z,3.50
2023-05-13T12:30:38.616Z,3.85
2023-05-13T12:33:06.760Z,3.10
2023-05-13T12:35:36.130Z,3.30
2023-05-13T12:38:04.984Z,3.50
2023-05-13T12:40:33.441Z,3.70
2023-05-13T12:43:03.192Z,3.50
2023-05-13T12:45:31.933Z,3.50
2023-05-13T12:48:01.196Z,3.03
2023-05-13T12:50:29.171Z,3.15
2023-05-13T12:52:59.770Z,3.20
2023-05-13T12:55:28.305Z,3.28
2023-05-13T12:57:57.288Z,3.10
2023-05-13T13:00:25.506Z,3.40
2023-05-13T13:02:54.107Z,3.45
2023-05-13T13:05:22.359Z,3.38
2023-05-13T13:07:50.546Z,3.28
2023-05-13T13:10:20.029Z,3.38
2023-05-13T13:12:49.370Z,3.50
2023-05-13T13:15:17.344Z,3.20
2023-05-13T13:17:45.386Z,3.30
2023-05-13T13:20:13.524Z,3.00
2023-05-13T13:22:41.313Z,3.00
2023-05-13T13:25:11.692Z,3.20
2023-05-13T13:27:41.038Z,3.40
2023-05-13T13:30:09.769Z,3.13
2023-05-13T13:32:37.776Z,3.60
2023-05-13T13:35:06.173Z,3.70
2023-05-13T13:37:34.654Z,3.60
2023-05-13T13:40:04.076Z,3.60
2023-05-13T13:42:43.312Z,3.75
2023-05-13T13:45:14.457Z,3.70
2023-05-13T13:47:42.674Z,4.60
2023-05-13T13:50:11.535Z,3.25
2023-05-13T13:52:39.405Z,3.65
2023-05-13T13:55:08.460Z,3.53
2023-05-13T13:57:36.351Z,3.78
2023-05-13T14:00:05.098Z,3.55
2023-05-13T14:02:34.440Z,3.28
2023-05-13T14:05:02.421Z,3.55
2023-05-13T14:07:30.284Z,3.80
2023-05-13T14:10:00.886Z,3.20
2023-05-13T14:12:29.275Z,3.70
2023-05-13T14:14:57.203Z,3.45
2023-05-13T14:17:25.212Z,3.47
2023-05-13T14:19:55.178Z,3.67
2023-05-13T14:22:23.703Z,3.22
2023-05-13T14:24:52.662Z,3.55
2023-05-13T14:27:20.854Z,2.97
2023-05-13T14:29:49.143Z,2.80
2023-05-13T14:32:17.175Z,3.10
2023-05-13T14:34:44.952Z,2.78
2023-05-13T14:37:14.135Z,2.60
2023-05-13T14:39:41.950Z,3.00
2023-05-13T14:42:11.379Z,2.92
2023-05-13T14:44:41.245Z,2.90
2023-05-13T14:47:09.678Z,2.70
2023-05-13T14:49:37.482Z,2.72
2023-05-13T14:52:05.732Z,2.72
2023-05-13T14:54:37.674Z,3.20
2023-05-13T14:57:07.078Z,3.25
2023-05-13T14:59:36.581Z,3.08
2023-05-13T15:02:04.633Z,2.80
2023-05-13T15:04:32.498Z,2.88
2023-05-13T15:07:00.362Z,2.63
2023-05-13T15:09:28.162Z,2.70
2023-05-13T15:11:57.325Z,2.70
2023-05-13T15:14:26.170Z,2.58
2023-05-13T15:16:54.351Z,2.67
2023-05-13T15:19:22.275Z,2.60
2023-05-13T15:21:50.731Z,2.70
2023-05-13T15:24:18.579Z,2.70
2023-05-13T15:26:49.153Z,2.47
2023-05-13T15:29:18.356Z,2.67
2023-05-13T15:31:46.190Z,2.75
2023-05-13T15:34:14.066Z,2.30
2023-05-13T15:36:43.009Z,2.58
2023-05-13T15:39:12.257Z,3.25
2023-05-13T15:41:40.293Z,3.25
2023-05-13T15:44:08.189Z,2.55
2023-05-13T15:46:37.758Z,2.70
2023-05-13T15:49:06.523Z,2.95
2023-05-13T15:51:35.463Z,3.40
2023-05-13T15:54:03.362Z,2.70
2023-05-13T15:56:31.206Z,3.83
2023-05-13T15:58:59.056Z,6.05
2023-05-13T16:01:27.095Z,2.60
2023-05-13T16:03:56.571Z,3.17
2023-05-13T16:06:24.424Z,2.70
2023-05-13T16:08:55.618Z,2.90
2023-05-13T16:11:24.637Z,2.60
2023-05-13T16:13:53.326Z,2.80
2023-05-13T16:16:21.890Z,3.00
2023-05-13T16:18:50.383Z,2.90
2023-05-13T16:21:20.060Z,2.90
2023-05-13T16:23:47.856Z,2.63
2023-05-13T16:26:15.638Z,8.37
2023-05-13T16:28:43.401Z,54.93
2023-05-13T16:31:11.182Z,3.67
2023-05-13T16:33:38.975Z,64.25
2023-05-13T16:36:08.286Z,16.73
2023-05-13T16:38:38.723Z,23.48
2023-05-13T16:41:06.653Z,20.30
2023-05-13T16:43:34.445Z,5.72
2023-05-13T16:46:02.665Z,3.90
2023-05-13T16:48:30.483Z,2.30
2023-05-13T16:50:58.367Z,2.00
2023-05-13T16:53:27.045Z,2.20
2023-05-13T16:55:56.227Z,2.22
2023-05-13T16:58:24.022Z,2.00
2023-05-13T17:00:52.290Z,1.92
2023-05-13T17:03:20.332Z,1.90
2023-05-13T17:05:48.258Z,1.67
2023-05-13T17:08:17.428Z,2.17
2023-05-13T17:10:45.313Z,1.95
2023-05-13T17:13:14.575Z,1.90
2023-05-13T17:15:42.399Z,1.83
2023-05-13T17:18:10.474Z,1.90
2023-05-13T17:20:38.271Z,1.92
2023-05-13T17:23:06.328Z,1.90
2023-05-13T17:25:34.117Z,1.73
2023-05-13T17:28:01.900Z,1.85
2023-05-13T17:30:31.097Z,1.97
2023-05-13T17:32:59.001Z,1.80
2023-05-13T17:35:29.061Z,2.20
2023-05-13T17:37:57.000Z,1.77
2023-05-13T17:40:24.889Z,2.00
2023-05-13T17:42:53.022Z,2.10
2023-05-13T17:45:21.228Z,1.88
2023-05-13T17:47:50.499Z,1.80
2023-05-13T17:50:18.626Z,2.10
2023-05-13T17:52:46.504Z,2.15
2023-05-13T17:55:14.455Z,1.60
2023-05-13T17:57:42.281Z,2.20
2023-05-13T18:00:11.120Z,1.90
2023-05-13T18:02:39.936Z,1.80
2023-05-13T18:05:10.767Z,1.88
2023-05-13T18:07:38.616Z,1.83
2023-05-13T18:10:07.911Z,1.80
2023-05-13T18:12:35.777Z,2.13
2023-05-13T18:15:03.583Z,2.13
2023-05-13T18:17:31.447Z,2.30
2023-05-13T18:19:59.408Z,2.30
2023-05-13T18:22:28.600Z,2.60
2023-05-13T18:24:56.392Z,2.50
2023-05-13T18:27:24.315Z,2.65
2023-05-13T18:29:52.115Z,2.63
2023-05-13T18:32:19.939Z,2.30
2023-05-13T18:34:47.827Z,2.30
2023-05-13T18:37:16.072Z,2.58
2023-05-13T18:39:45.760Z,2.30
2023-05-13T18:42:13.668Z,2.70
2023-05-13T18:44:41.556Z,2.22
2023-05-13T18:47:09.400Z,2.33
2023-05-13T18:49:37.295Z,3.00
2023-05-13T18:52:05.461Z,3.00
2023-05-13T18:54:33.321Z,2.53
2023-05-13T18:57:02.545Z,2.78
2023-05-13T18:59:30.406Z,2.93
2023-05-13T19:01:59.210Z,2.85
2023-05-13T19:04:27.554Z,3.10
2023-05-13T19:06:55.381Z,2.80
2023-05-13T19:09:23.162Z,2.80
2023-05-13T19:11:51.862Z,3.17
2023-05-13T19:14:21.030Z,3.10
2023-05-13T19:16:48.862Z,3.07
2023-05-13T19:19:16.904Z,3.13
2023-05-13T19:21:44.838Z,3.47
2023-05-13T19:24:12.640Z,3.20
2023-05-13T19:26:40.845Z,3.47
2023-05-13T19:29:08.632Z,3.42
2023-05-13T19:31:37.983Z,3.63
2023-05-13T19:34:07.430Z,3.60
2023-05-13T19:36:35.234Z,3.83
2023-05-13T19:39:03.076Z,3.30
2023-05-13T19:41:30.958Z,3.55
2023-05-13T19:43:58.731Z,3.80
2023-05-13T19:46:27.053Z,6.20
2023-05-13T19:48:56.244Z,4.45
2023-05-13T19:51:24.068Z,3.38
2023-05-13T19:53:52.587Z,2.60
2023-05-13T19:56:21.080Z,2.50
2023-05-13T19:58:48.949Z,2.15
2023-05-13T20:01:16.786Z,1.95
2023-05-13T20:03:44.827Z,4.68
2023-05-13T20:06:14.116Z,2.15
2023-05-13T20:08:41.900Z,1.77
2023-05-13T20:11:09.683Z,1.75
2023-05-13T20:13:37.470Z,1.60
2023-05-13T20:16:05.327Z,1.58
2023-05-13T20:18:33.200Z,1.40
2023-05-13T20:21:01.041Z,1.50
2023-05-13T20:23:30.811Z,1.77
2023-05-13T20:25:59.370Z,1.38
2023-05-13T20:28:27.565Z,1.40
2023-05-13T20:30:55.967Z,1.42
2023-05-13T20:33:23.832Z,1.20
2023-05-13T20:35:51.618Z,1.20
2023-05-13T20:38:19.778Z,1.10
2023-05-13T20:40:49.200Z,1.10
2023-05-13T20:43:17.321Z,1.10
2023-05-13T20:45:46.632Z,1.10
2023-05-13T20:48:16.570Z,1.30
2023-05-13T20:50:46.207Z,1.35
2023-05-13T20:53:14.284Z,1.50
2023-05-13T20:55:42.097Z,1.50
2023-05-13T20:58:12.410Z,1.45
2023-05-13T21:00:40.832Z,1.50
2023-05-13T21:03:11.506Z,1.60
2023-05-13T21:05:39.496Z,1.70
2023-05-13T21:08:07.381Z,1.80
2023-05-13T21:10:35.206Z,2.30
2023-05-13T21:13:03.257Z,1.67
2023-05-13T21:15:32.458Z,2.00
2023-05-13T21:18:00.295Z,2.10
2023-05-13T21:20:28.204Z,2.15
2023-05-13T21:22:55.977Z,2.13
2023-05-13T21:25:23.741Z,2.60
2023-05-13T21:27:51.499Z,3.42
2023-05-13T21:30:19.565Z,3.30
2023-05-13T21:32:50.278Z,3.40
2023-05-13T21:35:19.175Z,3.47
2023-05-13T21:37:47.547Z,3.80
2023-05-13T21:40:15.962Z,3.70
2023-05-13T21:42:43.905Z,4.97
2023-05-13T21:45:13.155Z,6.00
2023-05-13T21:47:41.240Z,6.40
2023-05-13T21:50:11.977Z,7.03
2023-05-13T21:52:39.802Z,8.00
2023-05-13T21:55:08.581Z,8.45
2023-05-13T21:57:36.373Z,9.57
2023-05-13T22:00:07.911Z,9.95
2023-05-13T22:02:35.794Z,9.38
2023-05-13T22:05:03.604Z,10.75
2023-05-13T22:07:32.719Z,11.75
2023-05-13T22:10:00.546Z,14.27
2023-05-13T22:12:28.313Z,13.70
2023-05-13T22:14:56.091Z,13.20
2023-05-13T22:17:23.910Z,13.27
2023-05-13T22:19:52.693Z,13.40
2023-05-13T22:22:20.491Z,13.30
2023-05-13T22:24:49.925Z,15.23
2023-05-13T22:27:17.766Z,15.35
2023-05-13T22:29:45.543Z,14.87
2023-05-13T22:32:13.520Z,15.57
2023-05-13T22:34:41.306Z,16.08
2023-05-13T22:37:09.076Z,16.15
2023-05-13T22:39:36.956Z,16.65
2023-05-13T22:42:06.571Z,16.48
2023-05-13T22:44:34.328Z,16.92
2023-05-13T22:47:02.206Z,16.63
2023-05-13T22:49:29.972Z,17.15
2023-05-13T22:51:57.744Z,17.75
2023-05-13T22:54:25.563Z,17.90
2023-05-13T22:56:53.853Z,18.25
2023-05-13T22:59:23.056Z,18.33
2023-05-13T23:04:43.428Z,18.38
2023-05-13T23:07:11.218Z,19.02
2023-05-13T23:09:39.032Z,18.13
2023-05-13T23:12:07.936Z,17.58
2023-05-13T23:14:37.033Z,18.58
2023-05-13T23:17:04.889Z,18.67
2023-05-13T23:19:32.719Z,18.23
2023-05-13T23:22:00.509Z,18.45
2023-05-13T23:24:28.255Z,19.45
2023-05-13T23:26:56.044Z,19.10
2023-05-13T23:29:27.320Z,19.08
2023-05-13T23:31:56.614Z,19.13
2023-05-13T23:34:24.595Z,18.65
2023-05-13T23:36:52.444Z,18.30
2023-05-13T23:39:20.282Z,18.70
2023-05-13T23:41:48.218Z,19.00
2023-05-13T23:44:16.013Z,17.70
2023-05-13T23:46:43.808Z,17.90
2023-05-13T23:49:12.958Z,18.20
2023-05-13T23:51:40.764Z,16.65
2023-05-13T23:54:08.697Z,17.00
2023-05-13T23:56:36.444Z,17.02
2023-05-13T23:59:04.265Z,16.67
